Latest Weather Observations for McCluer Island

IDD60801

Issued at 1:01 pm CST Sunday 25 January 2015 (issued every 30 minutes, with the page automatically refreshed every 10 minutes)

About weather observations | Map of weather stations | Latest weather observations for NT | Other Formats
Station Details ID: 014274 Name: MCCLUER ISLAND Lat: -11.05 Lon: 132.98 Height: 1.4 m
Data from the previous 72 hours. | See also: Recent months at McCluer Island
Date/Time
CST
Temp
°C
App
Temp
°C
Dew
Point
Rel
Hum
%
Delta-T
°C
Wind Press
QNH
hPa
Press
MSL
hPa
Rain
since 9 am
mm
Dir
 
Spd
km/h
Gust
km/h
Spd
kts
Gust
kts
25/01:00pm 29.7 - 30.6 - - NW 32 37 17 20 1008.9 - 0.2
25/12:30pm 29.0 - 29.8 - - NW 32 35 17 19 1009.3 - 0.2
25/12:00pm 29.7 - 30.6 - - NW 24 28 13 15 1009.5 1009.5 0.0
25/11:30am 29.2 - 30.0 - - NW 28 33 15 18 1010.0 - 0.0
25/11:00am 28.5 - 29.3 - - NW 30 37 16 20 1010.5 - 0.0
25/10:30am 28.2 - 29.0 - - NW 26 32 14 17 1010.9 - 0.0
25/10:00am 28.1 - 28.8 - - NW 28 32 15 17 1011.0 - 0.0
25/09:30am 28.1 - 28.8 - - NW 24 30 13 16 1010.8 - 0.0
25/09:00am 29.1 - 29.8 - - NW 24 28 13 15 1010.5 1010.5 0.6
25/08:30am 28.0 - 28.7 - - NW 24 28 13 15 1010.2 - 0.6
25/08:00am 27.6 - 28.4 - - NW 26 30 14 16 1010.0 - 0.6
25/07:30am 27.7 - 28.4 - - NW 30 35 16 19 1009.8 - 0.6
25/07:00am 27.2 - 27.9 - - NW 28 30 15 16 1009.4 - 0.6
25/06:30am 26.6 - 27.3 - - WNW 32 35 17 19 1008.8 - 0.6
25/06:00am 26.7 - 27.5 - - WNW 33 39 18 21 1008.5 1008.5 0.6
25/05:30am 26.8 - 27.6 - - WNW 28 35 15 19 1008.7 - 0.6
25/05:00am 27.5 - 28.3 - - NW 19 20 10 11 1008.7 - 0.6
25/04:30am 27.4 - 28.2 - - WNW 20 22 11 12 1007.9 - 0.6
25/04:00am 27.5 - 28.3 - - NW 24 28 13 15 1008.2 - 0.6
25/03:30am 27.6 - 28.3 - - WNW 24 28 13 15 1008.6 - 0.6
25/03:00am 27.5 - 28.2 - - WNW 24 28 13 15 1008.4 1008.4 0.6
25/02:30am 27.5 - 28.2 - - WNW 28 32 15 17 1008.2 - 0.6
25/02:00am 27.5 - 28.2 - - WNW 26 30 14 16 1008.8 - 0.6
25/01:30am 27.6 - 28.3 - - W 17 24 9 13 1009.2 - 0.6
25/01:00am 27.7 - 28.4 - - W 24 30 13 16 1009.2 - 0.6
25/12:30am 27.6 - 28.3 - - W 26 32 14 17 1009.5 - 0.6
25/12:00am 27.9 - 28.6 - - W 22 30 12 16 1009.6 1009.6 0.6
 
Date/Time
CST
Temp
°C
App
Temp
°C
Dew
Point
Rel
Hum
%
Delta-T
°C
Wind Press
QNH
hPa
Press
MSL
hPa
Rain
since 9 am
mm
Dir
 
Spd
km/h
Gust
km/h
Spd
kts
Gust
kts
24/11:30pm 27.8 - 28.5 - - W 30 37 16 20 1009.8 - 0.6
24/11:00pm 27.9 - 28.7 - - WNW 33 39 18 21 1009.8 - 0.6
24/10:30pm 27.9 - 28.7 - - WNW 30 35 16 19 1009.5 - 0.6
24/10:00pm 27.7 - 28.5 - - WNW 33 37 18 20 1009.1 - 0.6
24/09:30pm 27.9 - 28.7 - - WNW 30 35 16 19 1009.0 - 0.6
24/09:00pm 27.8 - 28.6 - - WNW 33 37 18 20 1008.9 1008.9 0.6
24/08:30pm 27.8 - 28.6 - - NW 33 39 18 21 1008.8 - 0.6
24/08:00pm 27.9 - 28.7 - - NW 33 39 18 21 1008.5 - 0.6
24/07:30pm 27.9 - 28.6 - - NW 35 41 19 22 1008.4 - 0.6
24/07:00pm 27.8 - 28.5 - - NW 39 44 21 24 1007.9 - 0.6
24/06:30pm 27.8 - 28.5 - - NW 33 39 18 21 1007.8 - 0.6
24/06:00pm 27.8 - 28.5 - - WNW 35 43 19 23 1007.0 1007.0 0.6
24/05:30pm 28.0 - 28.7 - - WNW 33 39 18 21 1006.5 - 0.6
24/05:00pm 27.8 - 28.5 - - WNW 35 41 19 22 1005.9 - 0.6
24/04:30pm 27.8 - 28.5 - - W 32 35 17 19 1005.8 - 0.6
24/04:00pm 27.5 - 28.3 - - WNW 28 32 15 17 1006.2 - 0.6
24/03:30pm 26.9 - 27.7 - - NW 33 39 18 21 1006.6 - 0.6
24/03:00pm 27.6 - 28.3 - - NW 37 43 20 23 1007.2 1007.2 0.6
24/02:30pm 28.2 - 28.9 - - WNW 39 44 21 24 1007.3 - 0.6
24/02:00pm 28.9 - 29.6 - - NW 37 44 20 24 1007.4 - 0.6
24/01:30pm 28.7 - 29.4 - - NW 37 43 20 23 1007.3 - 0.6
24/01:00pm 28.3 - 29.0 - - NW 35 41 19 22 1007.3 - 0.6
24/12:30pm 28.3 - 29.0 - - NW 37 44 20 24 1006.9 - 0.6
24/12:00pm 28.0 - 28.7 - - WNW 37 43 20 23 1006.7 1006.7 0.6
24/11:30am 28.0 - 28.7 - - WNW 32 39 17 21 1006.6 - 0.6
24/11:00am 26.8 - 27.5 - - WNW 35 39 19 21 1007.4 - 0.6
24/10:30am 26.0 - 26.7 - - WNW 43 50 23 27 1008.4 - 0.6
24/10:00am 26.1 - 26.8 - - WNW 46 56 25 30 1008.7 - 0.0
24/09:30am 26.7 - 27.4 - - WNW 52 61 28 33 1008.4 - 0.0
24/09:00am 27.0 - 27.7 - - W 44 56 24 30 1008.0 1008.0 55.0
24/08:30am 27.2 - 27.9 - - W 43 52 23 28 1008.1 - 55.0
24/08:00am 26.9 - 27.6 - - WNW 44 50 24 27 1008.0 - 55.0
24/07:30am 26.6 - 27.3 - - WNW 48 57 26 31 1007.4 - 55.0
24/07:00am 27.0 - 27.7 - - W 39 46 21 25 1006.9 - 55.0
24/06:30am 26.7 - 27.4 - - W 41 52 22 28 1006.7 - 55.0
24/06:00am 26.9 - 27.6 - - W 39 48 21 26 1006.7 1006.7 55.0
24/05:30am 27.5 - 28.2 - - WNW 41 52 22 28 1005.9 - 55.0
24/05:00am 27.4 - 28.1 - - WNW 39 46 21 25 1005.7 - 55.0
24/04:30am 27.4 - 28.1 - - WNW 37 44 20 24 1005.5 - 55.0
24/04:00am 27.2 - 27.9 - - NW 35 41 19 22 1005.2 - 55.0
24/03:30am 27.2 - 27.9 - - WNW 39 46 21 25 1005.2 - 54.8
24/03:00am 27.4 - 28.1 - - NW 41 46 22 25 1005.8 1005.8 54.8
24/02:30am 27.8 - 28.5 - - WNW 35 43 19 23 1005.5 - 54.8
24/02:00am 27.6 - 28.3 - - WNW 33 37 18 20 1006.0 - 54.8
24/01:30am 27.4 - 28.1 - - WNW 32 37 17 20 1006.6 - 54.8
24/01:00am 27.4 - 28.1 - - W 32 35 17 19 1007.2 - 54.8
24/12:30am 27.2 - 27.9 - - WNW 33 41 18 22 1007.5 - 54.8
24/12:00am 27.1 - 27.8 - - WNW 24 24 13 13 1007.2 1007.2 54.8
 
Date/Time
CST
Temp
°C
App
Temp
°C
Dew
Point
Rel
Hum
%
Delta-T
°C
Wind Press
QNH
hPa
Press
MSL
hPa
Rain
since 9 am
mm
Dir
 
Spd
km/h
Gust
km/h
Spd
kts
Gust
kts
23/11:30pm 26.8 - 27.5 - - NNW 15 17 8 9 1007.2 - 54.8
23/11:00pm 26.9 - 27.6 - - N 19 20 10 11 1007.2 - 54.8
23/10:30pm 26.6 - 27.3 - - N 15 19 8 10 1007.0 - 54.8
23/10:00pm 26.5 - 27.2 - - NW 13 15 7 8 1007.0 - 54.8
23/09:30pm 26.3 - 27.0 - - NW 17 22 9 12 1006.4 - 54.8
23/09:00pm 26.1 - 26.8 - - W 11 15 6 8 1005.9 1005.9 54.8
23/08:30pm 25.8 - 26.5 - - WNW 19 22 10 12 1006.1 - 54.2
23/08:00pm 25.4 - 26.1 - - W 26 33 14 18 1006.4 - 53.0
23/07:30pm 25.2 - 25.9 - - W 44 63 24 34 1006.6 - 47.4
23/07:15pm 25.6 - 26.3 - - W 28 56 15 30 1006.3 - 44.8
23/07:00pm 25.4 - 26.1 - - W 33 46 18 25 1006.7 - 42.8
23/06:56pm 25.5 - 26.2 - - W 37 56 20 30 1007.1 - 40.6
23/06:47pm 26.1 - 26.8 - - W 37 52 20 28 1007.2 - 29.6
23/06:42pm 26.8 - 27.5 - - WNW 30 50 16 27 1006.7 - 21.0
23/06:30pm 26.5 - 27.2 - - WNW 28 32 15 17 1006.2 - 18.4
23/06:00pm 27.2 - 27.9 - - NW 32 48 17 26 1005.5 1005.5 18.4
23/05:34pm 27.5 - 28.2 - - NW 30 48 16 26 1005.0 - 18.2
23/05:30pm 27.6 - 28.3 - - NW 26 32 14 17 1004.8 - 18.2
23/05:00pm 27.3 - 27.8 - - NW 28 32 15 17 1004.7 - 18.2
23/04:30pm 27.1 - 27.8 - - NW 19 20 10 11 1004.4 - 18.2
23/04:00pm 26.0 - 26.7 - - WSW 9 13 5 7 1003.7 - 18.2
23/03:30pm 25.4 - 26.1 - - WNW 22 28 12 15 1004.9 - 18.2
23/03:00pm 25.1 - 25.8 - - W 13 24 7 13 1005.0 1005.0 18.2
23/02:37pm 25.2 - 25.7 - - W 35 59 19 32 1005.9 - 13.8
23/02:30pm 24.6 - 25.1 - - SW 44 59 24 32 1005.3 - 11.6
23/02:13pm 27.2 - 27.7 - - SW 43 61 23 33 1004.7 - 0.2
23/02:12pm 27.7 - 28.2 - - SW 44 61 24 33 1004.6 - 0.0
23/02:11pm 28.5 - 29.0 - - WNW 39 61 21 33 1004.5 - 0.0
23/02:00pm 29.5 - 30.0 - - WNW 41 50 22 27 1004.5 - 0.0
23/01:30pm 29.6 - 30.1 - - WNW 43 50 23 27 1005.2 - 0.0
23/01:00pm 29.8 - 30.3 - - WNW 37 48 20 26 1005.8 - 0.0
23/12:30pm 29.7 - 30.2 - - WNW 41 46 22 25 1005.2 - 0.0
23/12:00pm 29.7 - 30.2 - - WNW 37 46 20 25 1005.3 1005.3 0.0
23/11:30am 29.8 - 30.3 - - WNW 39 50 21 27 1006.4 - 0.0
23/11:00am 30.0 - 30.5 - - WNW 37 44 20 24 1006.8 - 0.0
23/10:30am 29.6 - 30.1 - - WNW 37 43 20 23 1007.0 - 0.0
23/10:00am 29.7 - 30.2 - - WNW 41 48 22 26 1006.4 - 0.0
23/09:30am 29.7 - 30.2 - - WNW 39 46 21 25 1006.1 - 0.0
23/09:00am 29.6 - 30.1 - - WNW 35 41 19 22 1006.5 1006.5 0.0
23/08:30am 29.0 - 29.5 - - WNW 33 39 18 21 1006.6 - 0.0
23/08:00am 28.7 - 29.2 - - WNW 37 43 20 23 1006.2 - 0.0
23/07:30am 28.6 - 29.1 - - WNW 39 44 21 24 1005.5 - 0.0
23/07:00am 28.5 - 29.2 - - WNW 35 43 19 23 1005.4 - 0.0
23/06:30am 28.4 - 29.1 - - W 37 44 20 24 1005.3 - 0.0
23/06:00am 28.5 - 29.2 - - W 37 44 20 24 1005.2 1005.2 0.0
23/05:30am 28.5 - 29.2 - - W 44 54 24 29 1004.9 - 0.0
23/05:00am 28.6 - 29.3 - - W 41 48 22 26 1004.7 - 0.0
23/04:30am 28.4 - 28.9 - - W 43 48 23 26 1004.8 - 0.0
23/04:00am 28.5 - 29.2 - - W 39 46 21 25 1004.7 - 0.0
23/03:30am 28.4 - 28.9 - - W 32 43 17 23 1005.1 - 0.0
23/03:00am 28.5 - 29.2 - - W 30 35 16 19 1005.5 1005.5 0.0
23/02:30am 28.5 - 29.2 - - W 32 39 17 21 1005.2 - 0.0
23/02:00am 28.5 - 29.0 - - W 30 41 16 22 1005.3 - 0.0
23/01:30am 28.4 - 29.1 - - W 28 37 15 20 1005.2 - 0.0
23/01:00am 28.5 - 29.2 - - WNW 32 39 17 21 1006.3 - 0.0
23/12:30am 28.6 - 29.3 - - WNW 28 33 15 18 1007.5 - 0.0
23/12:00am 28.7 - 29.4 - - W 32 37 17 20 1007.1 1007.1 0.0
 
Date/Time
CST
Temp
°C
App
Temp
°C
Dew
Point
Rel
Hum
%
Delta-T
°C
Wind Press
QNH
hPa
Press
MSL
hPa
Rain
since 9 am
mm
Dir
 
Spd
km/h
Gust
km/h
Spd
kts
Gust
kts
22/11:30pm 28.8 - 29.3 - - WNW 35 43 19 23 1006.8 - 0.0
22/11:00pm 28.8 - 29.3 - - W 41 48 22 26 1006.9 - 0.0
22/10:30pm 28.8 - 29.3 - - WNW 41 50 22 27 1006.4 - 0.0
22/10:00pm 28.7 - 29.2 - - W 43 52 23 28 1006.0 - 0.0
22/09:30pm 28.9 - 29.4 - - W 48 57 26 31 1005.4 - 0.0
22/09:00pm 28.7 - 29.2 - - W 43 52 23 28 1005.2 1005.2 0.0
22/08:30pm 28.1 - 28.6 - - WNW 48 57 26 31 1005.0 - 0.0
22/08:00pm 28.4 - 28.9 - - WNW 43 52 23 28 1005.3 - 0.0
22/07:30pm 28.3 - 28.8 - - WNW 37 44 20 24 1005.7 - 0.0
22/07:00pm 28.6 - 29.1 - - NW 39 46 21 25 1006.0 - 0.0
22/06:30pm 28.7 - 29.2 - - WNW 41 48 22 26 1006.1 - 0.0
22/06:00pm 28.9 - 29.4 - - WNW 39 44 21 24 1005.8 1005.8 0.0
22/05:30pm 29.2 - 29.7 - - WNW 44 56 24 30 1005.0 - 0.0
22/05:00pm 29.3 - 29.8 - - WNW 43 54 23 29 1004.9 - 0.0
22/04:30pm 29.1 - 29.6 - - WNW 46 56 25 30 1004.8 - 0.0
22/04:00pm 29.7 - 30.2 - - WNW 50 59 27 32 1004.7 - 0.0
22/03:30pm 29.6 - 30.1 - - WNW 48 57 26 31 1004.8 - 0.0
22/03:00pm 29.9 - 30.4 - - WNW 46 54 25 29 1005.2 1005.2 0.0
22/02:30pm 30.5 - 31.0 - - WNW 46 54 25 29 1005.0 - 0.0
22/02:00pm 30.1 - 30.6 - - WNW 44 57 24 31 1005.3 - 0.0
22/01:30pm 30.2 - 30.7 - - W 48 56 26 30 1005.8 - 0.0

Other Formats:

Comma delimited format used in spreadsheet applications
http://www.bom.gov.au/fwo/IDD60801/IDD60801.94135.axf

JavaScript Object Notation format (JSON) in row-major order
http://www.bom.gov.au/fwo/IDD60801/IDD60801.94135.json